Main page
Satellite images 15-day forecastsClimateMarine weather Cyclones Lightning AirportsFAQ Newsletter About
Weather : Europe Africa North America South America Asia Australia-Oceania Others
Languages Contact

Ljubljana, Slovenia

Brnik

latitude: 46-13N, longitude: 014-29E, elevation: 385 m


METAR: LJLJ 181600Z 00000KT 0500 R30/0800N FG VV002 04/04 Q1020 NOSIG
TAF: LJLJ 181525Z 1815/1915 VRB02KT 0500 FG VV002 PROB40 1900/1909 0350 FG VV001 BECMG 1909/1912 12005KT 9999 NSW FEW030

Time: 17:21 (16:21 UTC)

Current weather observation

The report was made 21 minutes ago, at 16:00 UTC
Calm wind
Temperature 4°C
Humidity 100%
Pressure 1020 hPa
Visibility: 0500 m
fog

Change units

Forecast

The report was made 56 minutes ago, at 15:25 UTC
Forecast valid from 18 at 15 UTC to 19 at 15 UTC
Wind 2 kt from variable directions
Visibility: 0500 m
at a height of 200 ft
fog
Probability 40%
from 19 at 00 UTC to 19 at 09 UTC
Visibility: 0350 m
at a height of 100 ft
fog
Becoming
from 19 at 09 UTC to 19 at 12 UTC
Wind 5 kt from the East/Southeast
Visibility 10 km or more
Few clouds at a height of 3000 ft
The information on this site is subject to a disclaimer
Weather : Europe Africa North America South America Asia Australia-Oceania Others
Satellite images 15-day forecastsClimateMarine weather Cyclones Lightning AirportsFAQ Languages Contact Newsletter About